createdAt,value
2018-07-19T00:02:26.370Z,2.43
2018-07-19T00:04:54.566Z,3.33
2018-07-19T00:07:22.724Z,1.73
2018-07-19T00:09:50.920Z,3.07
2018-07-19T00:12:19.176Z,1.60
2018-07-19T00:14:47.419Z,3.27
2018-07-19T00:17:15.620Z,4.53
2018-07-19T00:19:43.934Z,1.97
2018-07-19T00:22:12.170Z,2.17
2018-07-19T00:24:40.348Z,3.17
2018-07-19T00:27:08.622Z,2.03
2018-07-19T00:29:36.884Z,4.70
2018-07-19T00:32:05.156Z,3.07
2018-07-19T00:34:33.356Z,2.17
2018-07-19T00:37:02.201Z,2.30
2018-07-19T00:39:30.479Z,2.20
2018-07-19T00:41:58.731Z,2.63
2018-07-19T00:44:26.943Z,2.27
2018-07-19T00:46:55.836Z,2.20
2018-07-19T00:49:24.009Z,1.80
2018-07-19T00:51:52.779Z,2.30
2018-07-19T00:54:20.995Z,3.90
2018-07-19T00:56:49.132Z,2.47
2018-07-19T00:59:17.405Z,5.20
2018-07-19T01:01:45.488Z,2.13
2018-07-19T01:04:13.929Z,4.43
2018-07-19T01:06:42.260Z,4.30
2018-07-19T01:09:11.263Z,3.50
2018-07-19T01:11:39.655Z,2.47
2018-07-19T01:14:08.489Z,3.93
2018-07-19T01:16:37.172Z,2.10
2018-07-19T01:19:05.357Z,5.60
2018-07-19T01:21:33.593Z,3.77
2018-07-19T01:24:01.793Z,2.47
2018-07-19T01:26:33.627Z,2.63
2018-07-19T01:29:01.871Z,5.30
2018-07-19T01:31:30.231Z,3.50
2018-07-19T01:33:58.284Z,2.40
2018-07-19T01:36:26.389Z,6.03
2018-07-19T01:38:54.635Z,3.03
2018-07-19T01:43:33.843Z,2.87
2018-07-19T01:46:02.139Z,2.47
2018-07-19T01:48:30.481Z,6.20
2018-07-19T01:50:58.871Z,2.67
2018-07-19T01:53:27.192Z,4.00
2018-07-19T01:55:55.323Z,2.70
2018-07-19T01:58:23.493Z,3.23
2018-07-19T02:00:51.796Z,3.50
2018-07-19T02:03:20.044Z,3.97
2018-07-19T02:05:48.122Z,5.50
2018-07-19T02:08:16.988Z,3.57
2018-07-19T02:10:45.180Z,3.93
2018-07-19T02:13:13.466Z,2.80
2018-07-19T02:15:41.724Z,3.43
2018-07-19T02:18:10.094Z,3.33
2018-07-19T02:20:38.356Z,3.33
2018-07-19T02:23:06.973Z,5.70
2018-07-19T02:25:35.374Z,4.53
2018-07-19T02:28:04.525Z,7.37
2018-07-19T02:30:32.658Z,3.90
2018-07-19T02:33:00.826Z,4.70
2018-07-19T02:35:29.103Z,6.37
2018-07-19T02:37:58.156Z,4.97
2018-07-19T02:40:26.587Z,6.80
2018-07-19T02:42:54.685Z,5.97
2018-07-19T02:45:22.965Z,3.17
2018-07-19T02:47:51.186Z,3.00
2018-07-19T02:50:19.298Z,3.50
2018-07-19T02:52:47.472Z,4.13
2018-07-19T02:55:15.789Z,5.00
2018-07-19T02:57:44.187Z,4.53
2018-07-19T03:00:12.474Z,3.63
2018-07-19T03:02:40.735Z,4.13
2018-07-19T03:05:08.971Z,4.60
2018-07-19T03:07:37.043Z,5.13
2018-07-19T03:10:05.231Z,5.80
2018-07-19T03:12:33.554Z,4.23
2018-07-19T03:15:01.682Z,4.47
2018-07-19T03:17:29.695Z,4.90
2018-07-19T03:19:57.786Z,3.50
2018-07-19T03:22:26.058Z,3.73
2018-07-19T03:24:54.199Z,3.50
2018-07-19T03:27:22.462Z,5.63
2018-07-19T03:29:50.618Z,3.37
2018-07-19T03:32:18.883Z,3.80
2018-07-19T03:34:47.213Z,3.73
2018-07-19T03:37:15.362Z,4.50
2018-07-19T03:39:43.469Z,2.80
2018-07-19T03:42:11.632Z,2.90
2018-07-19T03:44:39.770Z,4.43
2018-07-19T03:47:08.057Z,3.47
2018-07-19T03:49:36.218Z,2.50
2018-07-19T03:52:04.682Z,3.53
2018-07-19T03:54:32.867Z,2.57
2018-07-19T03:57:01.123Z,3.83
2018-07-19T03:59:29.374Z,3.90
2018-07-19T04:01:58.507Z,3.23
2018-07-19T04:04:27.058Z,5.03
2018-07-19T04:06:55.313Z,4.07
2018-07-19T04:09:23.612Z,3.30
2018-07-19T04:11:52.506Z,4.40
2018-07-19T04:14:20.757Z,2.73
2018-07-19T04:16:48.960Z,3.63
2018-07-19T04:19:17.186Z,3.97
2018-07-19T04:21:45.322Z,3.03
2018-07-19T04:24:13.586Z,4.03
2018-07-19T04:26:41.864Z,4.57
2018-07-19T04:29:09.954Z,4.13
2018-07-19T04:31:38.202Z,6.37
2018-07-19T04:34:06.686Z,4.67
2018-07-19T04:36:34.974Z,3.30
2018-07-19T04:39:04.188Z,5.30
2018-07-19T04:41:32.378Z,4.10
2018-07-19T04:44:00.486Z,5.13
2018-07-19T04:46:28.915Z,3.80
2018-07-19T04:48:57.094Z,4.50
2018-07-19T04:51:25.248Z,4.77
2018-07-19T04:53:53.576Z,5.40
2018-07-19T04:56:21.845Z,4.93
2018-07-19T04:58:50.180Z,4.93
2018-07-19T05:01:18.312Z,4.07
2018-07-19T05:03:46.648Z,3.80
2018-07-19T05:06:15.165Z,4.63
2018-07-19T05:08:43.448Z,4.17
2018-07-19T05:11:11.530Z,2.97
2018-07-19T05:13:40.321Z,4.23
2018-07-19T05:16:08.594Z,3.47
2018-07-19T05:18:36.876Z,5.10
2018-07-19T05:21:05.027Z,3.30
2018-07-19T05:23:33.725Z,4.80
2018-07-19T05:26:01.957Z,3.73
2018-07-19T05:28:30.165Z,4.53
2018-07-19T05:30:58.419Z,3.57
2018-07-19T05:33:26.716Z,3.60
2018-07-19T05:35:55.575Z,5.90
2018-07-19T05:38:26.972Z,5.40
2018-07-19T05:40:55.185Z,3.67
2018-07-19T05:43:23.458Z,4.77
2018-07-19T05:45:51.610Z,3.20
2018-07-19T05:48:26.456Z,4.77
2018-07-19T05:50:54.698Z,3.73
2018-07-19T05:53:22.782Z,3.13
2018-07-19T05:55:54.058Z,3.53
2018-07-19T05:58:25.727Z,2.70
2018-07-19T06:01:07.914Z,5.67
2018-07-19T06:03:39.612Z,7.23
2018-07-19T06:06:10.763Z,3.73
2018-07-19T06:08:39.498Z,6.67
2018-07-19T06:14:54.276Z,3.47
2018-07-19T06:21:08.738Z,3.33
2018-07-19T06:24:10.352Z,3.87
2018-07-19T06:27:06.593Z,5.20
2018-07-19T06:29:38.401Z,4.43
2018-07-19T06:32:33.381Z,4.60
2018-07-19T06:35:28.715Z,4.67
2018-07-19T06:41:14.223Z,2.83
2018-07-19T06:43:43.387Z,3.53
2018-07-19T06:49:41.908Z,3.12
2018-07-19T06:52:15.264Z,3.30
2018-07-19T06:55:13.313Z,5.87
2018-07-19T06:58:17.287Z,6.90
2018-07-19T07:00:53.631Z,2.75
2018-07-19T07:03:26.849Z,5.53
2018-07-19T07:05:55.546Z,5.40
2018-07-19T07:08:59.859Z,6.37
2018-07-19T07:11:56.756Z,2.62
2018-07-19T07:14:37.839Z,2.83
2018-07-19T07:17:19.670Z,4.35
2018-07-19T07:19:49.316Z,4.47
2018-07-19T07:22:47.387Z,4.95
2018-07-19T07:25:32.524Z,3.70
2018-07-19T07:37:51.436Z,3.80
2018-07-19T07:45:47.339Z,5.72
2018-07-19T07:49:45.578Z,2.72
2018-07-19T07:52:38.996Z,2.30
2018-07-19T07:56:17.986Z,4.42
2018-07-19T07:59:24.117Z,5.45
2018-07-19T08:01:58.247Z,3.98
2018-07-19T08:08:06.688Z,4.40
2018-07-19T08:14:21.780Z,5.10
2018-07-19T08:17:33.738Z,6.33
2018-07-19T08:26:24.561Z,3.77
2018-07-19T08:28:59.176Z,3.55
2018-07-19T08:32:16.924Z,5.35
2018-07-19T08:35:41.745Z,3.58
2018-07-19T08:38:14.371Z,3.55
2018-07-19T08:40:53.125Z,4.65
2018-07-19T08:43:22.683Z,5.28
2018-07-19T08:50:36.137Z,5.60
2018-07-19T08:53:05.564Z,4.12
2018-07-19T08:55:35.340Z,5.28
2018-07-19T08:58:11.169Z,3.50
2018-07-19T09:47:37.664Z,3.92
2018-07-19T09:50:06.073Z,5.30
2018-07-19T09:52:35.044Z,5.20
2018-07-19T09:55:03.271Z,3.77
2018-07-19T09:57:31.885Z,3.40
2018-07-19T10:00:00.101Z,4.80
2018-07-19T10:02:29.453Z,7.25
2018-07-19T10:04:57.788Z,5.53
2018-07-19T10:07:26.770Z,3.00
2018-07-19T10:09:54.972Z,5.05
2018-07-19T10:12:23.200Z,4.47
2018-07-19T10:14:51.398Z,5.17
2018-07-19T10:17:19.656Z,4.67
2018-07-19T10:19:48.544Z,6.83
2018-07-19T10:22:16.810Z,4.22
2018-07-19T10:24:45.155Z,6.78
2018-07-19T10:27:13.360Z,3.58
2018-07-19T10:29:41.729Z,3.42
2018-07-19T10:32:09.861Z,5.30
2018-07-19T10:34:38.079Z,5.78
2018-07-19T10:37:06.395Z,6.53
2018-07-19T10:39:34.629Z,3.40
2018-07-19T10:42:03.095Z,3.98
2018-07-19T10:44:31.433Z,4.87
2018-07-19T10:46:59.793Z,5.40
2018-07-19T10:49:28.608Z,3.83
2018-07-19T10:51:56.892Z,5.40
2018-07-19T10:54:25.087Z,3.52
2018-07-19T10:56:53.289Z,4.65
2018-07-19T10:59:22.435Z,6.33
2018-07-19T11:01:50.983Z,9.33
2018-07-19T11:04:19.237Z,4.35
2018-07-19T11:06:47.543Z,5.35
2018-07-19T11:09:15.718Z,5.10
2018-07-19T11:11:43.961Z,3.20
2018-07-19T11:14:12.217Z,3.95
2018-07-19T11:16:40.480Z,2.37
2018-07-19T11:19:08.747Z,2.75
2018-07-19T11:21:36.960Z,3.37
2018-07-19T11:24:05.301Z,3.35
2018-07-19T11:26:34.241Z,3.62
2018-07-19T11:29:02.486Z,3.08
2018-07-19T11:31:30.773Z,4.25
2018-07-19T11:33:59.154Z,5.25
2018-07-19T11:36:27.421Z,4.22
2018-07-19T11:38:55.662Z,3.05
2018-07-19T11:41:24.058Z,6.25
2018-07-19T11:43:52.270Z,3.17
2018-07-19T11:46:20.479Z,5.60
2018-07-19T11:48:49.544Z,4.45
2018-07-19T11:51:18.292Z,4.90
2018-07-19T11:53:46.558Z,3.35
2018-07-19T11:56:14.741Z,2.17
2018-07-19T11:58:43.928Z,4.05
2018-07-19T12:01:12.342Z,4.05
2018-07-19T12:03:40.616Z,4.75
2018-07-19T12:06:08.796Z,3.65
2018-07-19T12:08:37.070Z,3.05
2018-07-19T12:11:05.306Z,5.58
2018-07-19T12:13:33.676Z,2.83
2018-07-19T12:16:01.819Z,4.55
2018-07-19T12:18:30.061Z,5.25
2018-07-19T12:20:59.088Z,3.40
2018-07-19T12:23:27.242Z,5.70
2018-07-19T12:25:55.503Z,7.10
2018-07-19T12:28:23.670Z,5.17
2018-07-19T12:30:52.055Z,5.22
2018-07-19T12:33:20.208Z,3.40
2018-07-19T12:35:48.442Z,5.28
2018-07-19T12:38:16.654Z,9.13
2018-07-19T12:40:46.255Z,3.20
2018-07-19T12:43:14.324Z,3.98
2018-07-19T12:45:42.532Z,3.15
2018-07-19T12:48:10.901Z,6.20
2018-07-19T12:50:39.028Z,3.87
2018-07-19T12:53:08.198Z,4.42
2018-07-19T12:55:36.388Z,7.95
2018-07-19T12:58:04.974Z,3.85
2018-07-19T13:00:33.191Z,8.10
2018-07-19T13:03:01.356Z,2.58
2018-07-19T13:05:29.587Z,5.00
2018-07-19T13:07:57.783Z,4.40
2018-07-19T13:10:26.547Z,2.58
2018-07-19T13:12:55.036Z,5.60
2018-07-19T13:15:24.432Z,3.75
2018-07-19T13:17:52.709Z,3.55
2018-07-19T13:20:20.901Z,4.35
2018-07-19T13:22:49.099Z,6.62
2018-07-19T13:25:17.379Z,2.25
2018-07-19T13:27:46.325Z,3.55
2018-07-19T13:30:14.505Z,2.22
2018-07-19T13:32:42.769Z,5.05
2018-07-19T13:35:11.236Z,3.35
2018-07-19T13:37:39.431Z,3.45
2018-07-19T13:40:07.632Z,3.10
2018-07-19T13:42:36.529Z,2.22
2018-07-19T13:45:05.264Z,2.33
2018-07-19T13:47:33.507Z,3.12
2018-07-19T13:50:01.756Z,5.65
2018-07-19T13:52:47.184Z,4.55
2018-07-19T13:55:15.482Z,4.90
2018-07-19T13:57:43.951Z,3.95
2018-07-19T14:00:12.092Z,5.58
2018-07-19T14:02:40.250Z,4.28
2018-07-19T14:05:08.496Z,4.37
2018-07-19T14:07:36.685Z,3.58
2018-07-19T14:10:05.586Z,3.95
2018-07-19T14:12:34.659Z,4.83
2018-07-19T14:15:02.869Z,4.22
2018-07-19T14:17:31.132Z,3.27
2018-07-19T14:19:59.397Z,6.30
2018-07-19T14:22:27.736Z,2.80
2018-07-19T14:24:55.930Z,4.57
2018-07-19T14:27:24.175Z,2.90
2018-07-19T14:29:52.465Z,2.50
2018-07-19T14:32:20.714Z,3.20
2018-07-19T14:34:49.967Z,4.20
2018-07-19T14:37:18.297Z,3.27
2018-07-19T14:39:46.663Z,4.67
2018-07-19T14:42:14.981Z,2.53
2018-07-19T14:44:43.310Z,3.07
2018-07-19T14:47:11.574Z,4.60
2018-07-19T14:49:39.766Z,3.57
2018-07-19T14:52:08.063Z,4.33
2018-07-19T14:54:36.215Z,3.37
2018-07-19T14:57:04.564Z,3.03
2018-07-19T14:59:32.719Z,4.10
2018-07-19T15:02:00.719Z,3.80
2018-07-19T15:04:28.845Z,3.80
2018-07-19T15:06:56.956Z,2.73
2018-07-19T15:09:25.050Z,3.73
2018-07-19T15:11:53.180Z,5.00
2018-07-19T15:14:22.114Z,3.67
2018-07-19T15:16:50.217Z,2.93
2018-07-19T15:19:18.378Z,4.40
2018-07-19T15:21:47.498Z,4.03
2018-07-19T15:24:15.715Z,3.43
2018-07-19T15:26:44.429Z,2.93
2018-07-19T15:29:12.647Z,4.73
2018-07-19T15:31:41.090Z,3.13
2018-07-19T15:34:09.265Z,2.27
2018-07-19T15:36:38.875Z,3.43
2018-07-19T15:39:07.981Z,3.10
2018-07-19T15:41:36.234Z,3.00
2018-07-19T15:44:05.492Z,2.40
2018-07-19T15:46:33.530Z,2.80
2018-07-19T15:49:01.961Z,2.60
2018-07-19T15:51:30.429Z,2.97
2018-07-19T15:53:58.686Z,3.37
2018-07-19T15:56:27.644Z,3.43
2018-07-19T15:58:56.586Z,3.07
2018-07-19T16:01:25.972Z,3.20
2018-07-19T16:03:54.415Z,4.87
2018-07-19T16:06:22.682Z,4.53
2018-07-19T16:08:50.834Z,3.63
2018-07-19T16:11:19.110Z,4.40
2018-07-19T16:13:47.383Z,3.23
2018-07-19T16:16:15.677Z,4.73
2018-07-19T16:18:43.970Z,3.77
2018-07-19T16:21:12.318Z,5.27
2018-07-19T16:23:40.513Z,4.07
2018-07-19T16:26:08.774Z,2.70
2018-07-19T16:28:37.618Z,4.20
2018-07-19T16:31:06.851Z,2.90
2018-07-19T16:33:35.741Z,3.87
2018-07-19T16:36:03.942Z,4.33
2018-07-19T16:38:32.717Z,5.47
2018-07-19T16:41:01.008Z,4.53
2018-07-19T16:43:30.150Z,2.97
2018-07-19T16:45:58.252Z,2.63
2018-07-19T16:48:26.397Z,4.00
2018-07-19T16:50:54.605Z,4.70
2018-07-19T16:53:23.443Z,3.67
2018-07-19T16:55:51.809Z,4.37
2018-07-19T16:58:20.017Z,6.37
2018-07-19T17:00:48.175Z,3.00
2018-07-19T17:03:16.406Z,3.13
2018-07-19T17:05:44.598Z,3.37
2018-07-19T17:08:13.621Z,3.23
2018-07-19T17:10:41.971Z,3.97
2018-07-19T17:13:11.060Z,3.40
2018-07-19T17:15:39.236Z,3.43
2018-07-19T17:18:07.594Z,3.13
2018-07-19T17:20:36.312Z,3.37
2018-07-19T17:23:04.920Z,3.20
2018-07-19T17:25:33.028Z,2.73
2018-07-19T17:28:01.946Z,3.93
2018-07-19T17:30:30.135Z,3.23
2018-07-19T17:32:58.365Z,2.67
2018-07-19T17:35:26.522Z,5.43
2018-07-19T17:37:54.772Z,2.40
2018-07-19T17:40:23.015Z,3.07
2018-07-19T17:42:51.226Z,2.43
2018-07-19T17:45:19.538Z,2.07
2018-07-19T17:47:47.739Z,1.87
2018-07-19T17:50:16.012Z,5.00
2018-07-19T17:52:44.184Z,2.33
2018-07-19T17:55:12.551Z,2.80
2018-07-19T17:57:40.708Z,2.70
2018-07-19T18:00:09.102Z,3.63
2018-07-19T18:02:37.252Z,4.33
2018-07-19T18:05:05.624Z,3.27
2018-07-19T18:07:33.822Z,3.83
2018-07-19T18:10:02.050Z,2.97
2018-07-19T18:12:30.217Z,2.00
2018-07-19T18:14:58.298Z,3.83
2018-07-19T18:17:26.534Z,2.17
2018-07-19T18:19:54.703Z,3.17
2018-07-19T18:22:23.497Z,2.83
2018-07-19T18:24:51.681Z,3.83
2018-07-19T18:27:19.799Z,4.03
2018-07-19T18:29:47.972Z,2.80
2018-07-19T18:32:16.283Z,2.67
2018-07-19T18:34:44.897Z,2.10
2018-07-19T18:37:12.982Z,2.50
2018-07-19T18:39:41.189Z,3.60
2018-07-19T18:42:10.085Z,2.60
2018-07-19T18:44:38.375Z,2.40
2018-07-19T18:47:06.641Z,2.90
2018-07-19T18:49:34.990Z,4.17
2018-07-19T18:52:03.378Z,3.20
2018-07-19T18:54:31.582Z,2.50
2018-07-19T18:56:59.847Z,3.33
2018-07-19T18:59:27.973Z,3.57
2018-07-19T19:01:56.219Z,2.90
2018-07-19T19:04:24.724Z,4.47
2018-07-19T19:06:52.819Z,3.10
2018-07-19T19:09:21.275Z,2.53
2018-07-19T19:11:49.464Z,2.70
2018-07-19T19:14:17.566Z,3.40
2018-07-19T19:16:45.822Z,2.70
2018-07-19T19:19:14.341Z,3.10
2018-07-19T19:21:42.550Z,3.37
2018-07-19T19:24:10.777Z,5.27
2018-07-19T19:26:38.985Z,4.83
2018-07-19T19:29:07.209Z,2.50
2018-07-19T19:31:35.458Z,3.47
2018-07-19T19:34:03.646Z,3.73
2018-07-19T19:36:32.057Z,3.27
2018-07-19T19:39:00.294Z,5.83
2018-07-19T19:41:28.409Z,2.13
2018-07-19T19:43:56.718Z,3.13
2018-07-19T19:46:24.988Z,3.23
2018-07-19T19:48:53.190Z,4.87
2018-07-19T19:51:21.933Z,4.03
2018-07-19T19:53:50.148Z,3.40
2018-07-19T19:56:18.353Z,2.83
2018-07-19T19:58:46.713Z,2.97
2018-07-19T20:01:14.846Z,4.40
2018-07-19T20:03:43.114Z,3.50
2018-07-19T20:06:11.428Z,2.73
2018-07-19T20:08:39.880Z,3.37
2018-07-19T20:11:08.077Z,4.47
2018-07-19T20:13:36.658Z,3.23
2018-07-19T20:16:04.931Z,3.60
2018-07-19T20:18:33.260Z,4.03
2018-07-19T20:21:01.640Z,2.83
2018-07-19T20:23:29.942Z,3.47
2018-07-19T20:25:58.452Z,3.07
2018-07-19T20:28:26.715Z,4.73
2018-07-19T20:30:54.906Z,3.20
2018-07-19T20:33:23.174Z,5.27
2018-07-19T20:35:51.399Z,4.20
2018-07-19T20:38:19.656Z,3.97
2018-07-19T20:40:47.771Z,3.10
2018-07-19T20:43:16.003Z,3.93
2018-07-19T20:45:44.178Z,4.60
2018-07-19T20:48:12.471Z,7.30
2018-07-19T20:50:40.643Z,4.23
2018-07-19T20:53:08.972Z,2.63
2018-07-19T20:55:37.210Z,3.77
2018-07-19T20:58:05.555Z,3.37
2018-07-19T21:00:33.740Z,6.00
2018-07-19T21:03:02.117Z,5.37
2018-07-19T21:05:30.259Z,4.00
2018-07-19T21:07:59.187Z,4.93
2018-07-19T21:10:27.387Z,5.00
2018-07-19T21:12:55.611Z,6.33
2018-07-19T21:15:23.793Z,7.17
2018-07-19T21:17:51.973Z,6.37
2018-07-19T21:20:20.243Z,6.00
2018-07-19T21:22:48.499Z,5.43
2018-07-19T21:25:16.690Z,7.73
2018-07-19T21:27:44.853Z,6.40
2018-07-19T21:30:13.214Z,7.47
2018-07-19T21:32:41.472Z,8.07
2018-07-19T21:35:09.864Z,6.33
2018-07-19T21:37:38.363Z,12.70
2018-07-19T21:40:06.642Z,6.93
2018-07-19T21:42:34.928Z,7.30
2018-07-19T21:45:03.231Z,7.97
2018-07-19T21:47:31.423Z,8.20
2018-07-19T21:49:59.648Z,8.77
2018-07-19T21:52:27.856Z,8.07
2018-07-19T21:54:57.235Z,7.43
2018-07-19T21:57:25.472Z,8.40
2018-07-19T21:59:53.674Z,7.37
2018-07-19T22:02:22.030Z,8.03
2018-07-19T22:04:50.283Z,6.10
2018-07-19T22:07:18.526Z,6.60
2018-07-19T22:09:46.847Z,7.27
2018-07-19T22:12:14.966Z,7.83
2018-07-19T22:14:43.096Z,8.03
2018-07-19T22:17:11.236Z,7.97
2018-07-19T22:19:40.144Z,7.83
2018-07-19T22:22:08.306Z,8.10
2018-07-19T22:24:36.602Z,10.77
2018-07-19T22:27:04.782Z,11.50
2018-07-19T22:29:33.083Z,8.93
2018-07-19T22:32:01.218Z,7.17
2018-07-19T22:34:30.162Z,9.57
2018-07-19T22:36:58.362Z,12.80
2018-07-19T22:39:26.604Z,10.83
2018-07-19T22:41:54.849Z,13.50
2018-07-19T22:44:23.064Z,8.40
2018-07-19T22:46:51.293Z,8.33
2018-07-19T22:49:19.295Z,8.30
2018-07-19T22:51:47.413Z,6.33
2018-07-19T22:54:15.809Z,7.90
2018-07-19T22:56:43.957Z,22.10
2018-07-19T22:59:12.068Z,9.47
2018-07-19T23:01:40.274Z,7.80
2018-07-19T23:04:08.497Z,8.43
2018-07-19T23:06:36.663Z,9.63
2018-07-19T23:09:07.066Z,9.10
2018-07-19T23:11:35.536Z,7.87
2018-07-19T23:14:03.922Z,8.43
2018-07-19T23:16:32.128Z,9.23
2018-07-19T23:19:00.339Z,8.13
2018-07-19T23:21:28.407Z,7.90
2018-07-19T23:23:56.454Z,8.17
2018-07-19T23:26:25.012Z,7.87
2018-07-19T23:28:53.225Z,7.60
2018-07-19T23:31:21.664Z,6.77
2018-07-19T23:33:49.906Z,8.70
2018-07-19T23:36:21.346Z,8.10
2018-07-19T23:38:52.707Z,11.17
2018-07-19T23:41:25.750Z,10.63
2018-07-19T23:43:58.002Z,9.23
2018-07-19T23:46:32.568Z,7.73
2018-07-19T23:49:06.234Z,8.37
2018-07-19T23:51:36.399Z,9.53
2018-07-19T23:54:04.608Z,9.57
2018-07-19T23:56:33.139Z,8.83
2018-07-19T23:59:01.216Z,7.60
